sensor_id;sensor_type;location;lat;lon;timestamp;temperature;humidity
25112;DHT22;13092;51.996;4.458;2023-06-24T00:00:02;21.00;99.90
25112;DHT22;13092;51.996;4.458;2023-06-24T00:02:34;21.00;99.90
25112;DHT22;13092;51.996;4.458;2023-06-24T00:05:04;20.90;99.90
25112;DHT22;13092;51.996;4.458;2023-06-24T00:07:35;20.90;99.90
25112;DHT22;13092;51.996;4.458;2023-06-24T00:10:13;20.80;99.90
25112;DHT22;13092;51.996;4.458;2023-06-24T00:12:58;20.80;99.90
25112;DHT22;13092;51.996;4.458;2023-06-24T00:15:28;20.80;99.90
25112;DHT22;13092;51.996;4.458;2023-06-24T00:17:56;20.80;99.90
25112;DHT22;13092;51.996;4.458;2023-06-24T00:20:33;20.80;99.90
25112;DHT22;13092;51.996;4.458;2023-06-24T00:23:02;20.50;99.90
25112;DHT22;13092;51.996;4.458;2023-06-24T00:25:32;20.60;99.90
25112;DHT22;13092;51.996;4.458;2023-06-24T00:28:03;20.60;99.90
25112;DHT22;13092;51.996;4.458;2023-06-24T00:30:32;20.50;99.90
25112;DHT22;13092;51.996;4.458;2023-06-24T00:33:07;20.50;99.90
25112;DHT22;13092;51.996;4.458;2023-06-24T00:35:37;20.40;99.90
25112;DHT22;13092;51.996;4.458;2023-06-24T00:38:06;20.40;99.90
25112;DHT22;13092;51.996;4.458;2023-06-24T00:40:36;20.40;99.90
25112;DHT22;13092;51.996;4.458;2023-06-24T00:43:06;20.40;99.90
25112;DHT22;13092;51.996;4.458;2023-06-24T00:45:34;20.30;99.90
25112;DHT22;13092;51.996;4.458;2023-06-24T00:48:03;20.30;99.90
25112;DHT22;13092;51.996;4.458;2023-06-24T00:50:31;20.20;99.90
25112;DHT22;13092;51.996;4.458;2023-06-24T00:53:00;20.20;99.90
25112;DHT22;13092;51.996;4.458;2023-06-24T00:55:31;20.20;99.90
25112;DHT22;13092;51.996;4.458;2023-06-24T00:58:01;20.10;99.90
25112;DHT22;13092;51.996;4.458;2023-06-24T01:00:30;20.10;99.90
25112;DHT22;13092;51.996;4.458;2023-06-24T01:02:59;20.10;99.90
25112;DHT22;13092;51.996;4.458;2023-06-24T01:05:28;20.10;99.90
25112;DHT22;13092;51.996;4.458;2023-06-24T01:08:03;20.20;99.90
25112;DHT22;13092;51.996;4.458;2023-06-24T01:10:31;20.10;99.90
25112;DHT22;13092;51.996;4.458;2023-06-24T01:13:01;20.10;99.90
25112;DHT22;13092;51.996;4.458;2023-06-24T01:15:29;20.00;99.90
25112;DHT22;13092;51.996;4.458;2023-06-24T01:18:05;20.10;99.90
25112;DHT22;13092;51.996;4.458;2023-06-24T01:20:41;20.00;99.90
25112;DHT22;13092;51.996;4.458;2023-06-24T01:23:40;20.00;99.90
25112;DHT22;13092;51.996;4.458;2023-06-24T01:26:23;20.00;99.90
25112;DHT22;13092;51.996;4.458;2023-06-24T01:29:09;20.00;99.90
25112;DHT22;13092;51.996;4.458;2023-06-24T01:31:48;20.00;99.90
25112;DHT22;13092;51.996;4.458;2023-06-24T01:34:24;20.00;99.90
25112;DHT22;13092;51.996;4.458;2023-06-24T01:37:00;20.10;99.90
25112;DHT22;13092;51.996;4.458;2023-06-24T01:39:32;20.00;99.90
25112;DHT22;13092;51.996;4.458;2023-06-24T01:42:07;20.00;99.90
25112;DHT22;13092;51.996;4.458;2023-06-24T01:44:39;20.00;99.90
25112;DHT22;13092;51.996;4.458;2023-06-24T01:47:11;20.00;99.90
25112;DHT22;13092;51.996;4.458;2023-06-24T01:49:42;20.10;99.90
25112;DHT22;13092;51.996;4.458;2023-06-24T01:52:12;20.00;99.90
25112;DHT22;13092;51.996;4.458;2023-06-24T01:54:42;20.00;99.90
25112;DHT22;13092;51.996;4.458;2023-06-24T01:57:11;20.00;99.90
25112;DHT22;13092;51.996;4.458;2023-06-24T01:59:41;20.00;99.90
25112;DHT22;13092;51.996;4.458;2023-06-24T02:02:12;20.00;99.90
25112;DHT22;13092;51.996;4.458;2023-06-24T02:04:42;20.00;99.90
25112;DHT22;13092;51.996;4.458;2023-06-24T02:07:11;20.00;99.90
25112;DHT22;13092;51.996;4.458;2023-06-24T02:09:42;19.90;99.90
25112;DHT22;13092;51.996;4.458;2023-06-24T02:12:12;19.90;99.90
25112;DHT22;13092;51.996;4.458;2023-06-24T02:14:41;19.90;99.90
25112;DHT22;13092;51.996;4.458;2023-06-24T02:17:12;19.90;99.90
25112;DHT22;13092;51.996;4.458;2023-06-24T02:19:42;20.00;99.90
25112;DHT22;13092;51.996;4.458;2023-06-24T02:22:11;19.90;99.90
25112;DHT22;13092;51.996;4.458;2023-06-24T02:24:41;19.90;99.90
25112;DHT22;13092;51.996;4.458;2023-06-24T02:27:10;19.90;99.90
25112;DHT22;13092;51.996;4.458;2023-06-24T02:29:42;19.90;99.90
25112;DHT22;13092;51.996;4.458;2023-06-24T02:32:12;19.90;99.90
25112;DHT22;13092;51.996;4.458;2023-06-24T02:34:41;19.90;99.90
25112;DHT22;13092;51.996;4.458;2023-06-24T02:37:09;20.00;99.90
25112;DHT22;13092;51.996;4.458;2023-06-24T02:39:37;19.80;99.90
25112;DHT22;13092;51.996;4.458;2023-06-24T02:42:11;19.80;99.90
25112;DHT22;13092;51.996;4.458;2023-06-24T02:44:40;19.80;99.90
25112;DHT22;13092;51.996;4.458;2023-06-24T02:47:15;19.80;99.90
25112;DHT22;13092;51.996;4.458;2023-06-24T02:49:48;19.80;99.90
25112;DHT22;13092;51.996;4.458;2023-06-24T02:52:18;19.80;99.90
25112;DHT22;13092;51.996;4.458;2023-06-24T02:54:46;19.70;99.90
25112;DHT22;13092;51.996;4.458;2023-06-24T02:57:17;19.70;99.90
25112;DHT22;13092;51.996;4.458;2023-06-24T02:59:47;19.70;99.90
25112;DHT22;13092;51.996;4.458;2023-06-24T03:02:17;19.60;99.90
25112;DHT22;13092;51.996;4.458;2023-06-24T03:04:47;19.60;99.90
25112;DHT22;13092;51.996;4.458;2023-06-24T03:07:17;19.60;99.90
25112;DHT22;13092;51.996;4.458;2023-06-24T03:09:48;19.50;99.90
25112;DHT22;13092;51.996;4.458;2023-06-24T03:12:16;19.60;99.90
25112;DHT22;13092;51.996;4.458;2023-06-24T03:14:44;19.50;99.90
25112;DHT22;13092;51.996;4.458;2023-06-24T03:17:13;19.50;99.90
25112;DHT22;13092;51.996;4.458;2023-06-24T03:19:43;19.50;99.90
25112;DHT22;13092;51.996;4.458;2023-06-24T03:22:11;19.50;99.90
25112;DHT22;13092;51.996;4.458;2023-06-24T03:24:40;19.50;99.90
25112;DHT22;13092;51.996;4.458;2023-06-24T03:27:08;19.50;99.90
25112;DHT22;13092;51.996;4.458;2023-06-24T03:29:36;19.50;99.90
25112;DHT22;13092;51.996;4.458;2023-06-24T03:32:05;19.50;99.90
25112;DHT22;13092;51.996;4.458;2023-06-24T03:34:34;19.50;99.90
25112;DHT22;13092;51.996;4.458;2023-06-24T03:37:04;19.40;99.90
25112;DHT22;13092;51.996;4.458;2023-06-24T03:39:32;19.50;99.90
25112;DHT22;13092;51.996;4.458;2023-06-24T03:42:04;19.40;99.90
25112;DHT22;13092;51.996;4.458;2023-06-24T03:44:32;19.40;99.90
25112;DHT22;13092;51.996;4.458;2023-06-24T03:47:01;19.60;99.90
25112;DHT22;13092;51.996;4.458;2023-06-24T03:49:29;19.40;99.90
25112;DHT22;13092;51.996;4.458;2023-06-24T03:51:57;19.20;99.90
25112;DHT22;13092;51.996;4.458;2023-06-24T03:54:27;19.30;99.90
25112;DHT22;13092;51.996;4.458;2023-06-24T03:56:56;19.30;99.90
25112;DHT22;13092;51.996;4.458;2023-06-24T03:59:24;19.30;99.90
25112;DHT22;13092;51.996;4.458;2023-06-24T04:01:54;19.30;99.90
25112;DHT22;13092;51.996;4.458;2023-06-24T04:04:24;19.30;99.90
25112;DHT22;13092;51.996;4.458;2023-06-24T04:06:52;19.40;99.90
25112;DHT22;13092;51.996;4.458;2023-06-24T04:09:20;19.40;99.90
25112;DHT22;13092;51.996;4.458;2023-06-24T04:11:52;19.40;99.90
25112;DHT22;13092;51.996;4.458;2023-06-24T04:14:20;19.50;99.90
25112;DHT22;13092;51.996;4.458;2023-06-24T04:16:50;19.50;99.90
25112;DHT22;13092;51.996;4.458;2023-06-24T04:19:19;19.50;99.90
25112;DHT22;13092;51.996;4.458;2023-06-24T04:21:50;19.60;99.90
25112;DHT22;13092;51.996;4.458;2023-06-24T04:24:18;19.60;99.90
25112;DHT22;13092;51.996;4.458;2023-06-24T04:26:47;19.70;99.90
25112;DHT22;13092;51.996;4.458;2023-06-24T04:29:17;19.70;99.90
25112;DHT22;13092;51.996;4.458;2023-06-24T04:31:45;19.70;99.90
25112;DHT22;13092;51.996;4.458;2023-06-24T04:34:15;19.70;99.90
25112;DHT22;13092;51.996;4.458;2023-06-24T04:36:49;19.80;99.90
25112;DHT22;13092;51.996;4.458;2023-06-24T04:39:18;19.90;99.90
25112;DHT22;13092;51.996;4.458;2023-06-24T04:41:46;19.90;99.90
25112;DHT22;13092;51.996;4.458;2023-06-24T04:44:15;20.10;99.90
25112;DHT22;13092;51.996;4.458;2023-06-24T04:46:44;20.10;99.90
25112;DHT22;13092;51.996;4.458;2023-06-24T04:49:13;20.10;99.90
25112;DHT22;13092;51.996;4.458;2023-06-24T04:51:44;20.20;99.90
25112;DHT22;13092;51.996;4.458;2023-06-24T04:54:12;20.30;99.90
25112;DHT22;13092;51.996;4.458;2023-06-24T04:56:41;20.40;99.90
25112;DHT22;13092;51.996;4.458;2023-06-24T04:59:09;20.50;99.90
25112;DHT22;13092;51.996;4.458;2023-06-24T05:01:38;20.60;99.90
25112;DHT22;13092;51.996;4.458;2023-06-24T05:04:08;20.70;99.90
25112;DHT22;13092;51.996;4.458;2023-06-24T05:06:36;20.80;99.90
25112;DHT22;13092;51.996;4.458;2023-06-24T05:09:04;20.80;99.90
25112;DHT22;13092;51.996;4.458;2023-06-24T05:11:36;20.90;99.90
25112;DHT22;13092;51.996;4.458;2023-06-24T05:14:04;21.10;99.90
25112;DHT22;13092;51.996;4.458;2023-06-24T05:16:34;21.10;99.90
25112;DHT22;13092;51.996;4.458;2023-06-24T05:19:02;21.20;99.90
25112;DHT22;13092;51.996;4.458;2023-06-24T05:21:32;21.20;99.90
25112;DHT22;13092;51.996;4.458;2023-06-24T05:24:01;21.30;99.90
25112;DHT22;13092;51.996;4.458;2023-06-24T05:26:29;21.40;99.90
25112;DHT22;13092;51.996;4.458;2023-06-24T05:29:01;21.60;99.90
25112;DHT22;13092;51.996;4.458;2023-06-24T05:31:33;21.50;99.90
25112;DHT22;13092;51.996;4.458;2023-06-24T05:34:01;21.60;99.90
25112;DHT22;13092;51.996;4.458;2023-06-24T05:36:31;21.60;99.90
25112;DHT22;13092;51.996;4.458;2023-06-24T05:39:00;21.60;99.90
25112;DHT22;13092;51.996;4.458;2023-06-24T05:41:29;21.70;99.90
25112;DHT22;13092;51.996;4.458;2023-06-24T05:44:01;21.70;99.90
25112;DHT22;13092;51.996;4.458;2023-06-24T05:46:30;21.70;99.90
25112;DHT22;13092;51.996;4.458;2023-06-24T05:48:59;21.90;99.90
25112;DHT22;13092;51.996;4.458;2023-06-24T05:51:27;21.80;99.90
25112;DHT22;13092;51.996;4.458;2023-06-24T05:53:59;21.80;99.90
25112;DHT22;13092;51.996;4.458;2023-06-24T05:56:27;21.90;99.90
25112;DHT22;13092;51.996;4.458;2023-06-24T05:58:59;22.00;99.90
25112;DHT22;13092;51.996;4.458;2023-06-24T06:01:27;22.10;99.90
25112;DHT22;13092;51.996;4.458;2023-06-24T06:03:55;22.10;99.90
25112;DHT22;13092;51.996;4.458;2023-06-24T06:06:24;22.20;99.90
25112;DHT22;13092;51.996;4.458;2023-06-24T06:08:52;22.20;99.90
25112;DHT22;13092;51.996;4.458;2023-06-24T06:11:23;22.20;99.90
25112;DHT22;13092;51.996;4.458;2023-06-24T06:13:51;22.10;99.90
25112;DHT22;13092;51.996;4.458;2023-06-24T06:16:20;22.10;99.90
25112;DHT22;13092;51.996;4.458;2023-06-24T06:18:48;22.10;99.90
25112;DHT22;13092;51.996;4.458;2023-06-24T06:21:16;22.00;99.90
25112;DHT22;13092;51.996;4.458;2023-06-24T06:23:44;22.10;99.90
25112;DHT22;13092;51.996;4.458;2023-06-24T06:26:13;22.10;99.90
25112;DHT22;13092;51.996;4.458;2023-06-24T06:28:43;22.20;99.90
25112;DHT22;13092;51.996;4.458;2023-06-24T06:31:15;22.10;99.90
25112;DHT22;13092;51.996;4.458;2023-06-24T06:33:44;22.30;99.90
25112;DHT22;13092;51.996;4.458;2023-06-24T06:36:12;22.30;99.90
25112;DHT22;13092;51.996;4.458;2023-06-24T06:38:41;22.40;99.90
25112;DHT22;13092;51.996;4.458;2023-06-24T06:41:09;22.50;99.90
25112;DHT22;13092;51.996;4.458;2023-06-24T06:43:39;22.60;99.90
25112;DHT22;13092;51.996;4.458;2023-06-24T06:46:09;22.60;99.90
25112;DHT22;13092;51.996;4.458;2023-06-24T06:48:37;22.70;99.90
25112;DHT22;13092;51.996;4.458;2023-06-24T06:51:05;22.70;99.90
25112;DHT22;13092;51.996;4.458;2023-06-24T06:53:36;22.80;99.90
25112;DHT22;13092;51.996;4.458;2023-06-24T06:56:04;22.80;99.90
25112;DHT22;13092;51.996;4.458;2023-06-24T06:58:33;22.90;99.90
25112;DHT22;13092;51.996;4.458;2023-06-24T07:01:01;22.80;99.90
25112;DHT22;13092;51.996;4.458;2023-06-24T07:03:35;22.80;99.90
25112;DHT22;13092;51.996;4.458;2023-06-24T07:06:04;22.90;99.90
25112;DHT22;13092;51.996;4.458;2023-06-24T07:08:33;22.90;99.90
25112;DHT22;13092;51.996;4.458;2023-06-24T07:11:04;22.90;99.90
25112;DHT22;13092;51.996;4.458;2023-06-24T07:13:32;22.90;99.90
25112;DHT22;13092;51.996;4.458;2023-06-24T07:16:01;22.90;99.90
25112;DHT22;13092;51.996;4.458;2023-06-24T07:18:29;23.00;99.90
25112;DHT22;13092;51.996;4.458;2023-06-24T07:21:00;23.10;99.90
25112;DHT22;13092;51.996;4.458;2023-06-24T07:23:29;23.20;99.90
25112;DHT22;13092;51.996;4.458;2023-06-24T07:25:57;23.30;99.90
25112;DHT22;13092;51.996;4.458;2023-06-24T07:28:30;23.30;99.90
25112;DHT22;13092;51.996;4.458;2023-06-24T07:30:58;23.40;99.90
25112;DHT22;13092;51.996;4.458;2023-06-24T07:33:28;23.50;99.90
25112;DHT22;13092;51.996;4.458;2023-06-24T07:35:59;23.40;99.90
25112;DHT22;13092;51.996;4.458;2023-06-24T07:38:28;23.30;99.90
25112;DHT22;13092;51.996;4.458;2023-06-24T07:40:58;23.30;99.90
25112;DHT22;13092;51.996;4.458;2023-06-24T07:43:26;23.40;99.90
25112;DHT22;13092;51.996;4.458;2023-06-24T07:45:55;23.40;99.90
25112;DHT22;13092;51.996;4.458;2023-06-24T07:48:23;23.50;99.90
25112;DHT22;13092;51.996;4.458;2023-06-24T07:50:51;23.70;99.90
25112;DHT22;13092;51.996;4.458;2023-06-24T07:53:21;23.90;99.90
25112;DHT22;13092;51.996;4.458;2023-06-24T07:55:49;23.90;99.90
25112;DHT22;13092;51.996;4.458;2023-06-24T07:58:18;23.90;99.90
25112;DHT22;13092;51.996;4.458;2023-06-24T08:00:47;24.00;99.90
25112;DHT22;13092;51.996;4.458;2023-06-24T08:03:15;24.10;99.90
25112;DHT22;13092;51.996;4.458;2023-06-24T08:05:44;24.30;99.90
25112;DHT22;13092;51.996;4.458;2023-06-24T08:08:15;24.40;99.90
25112;DHT22;13092;51.996;4.458;2023-06-24T08:10:46;24.50;99.90
25112;DHT22;13092;51.996;4.458;2023-06-24T08:13:15;24.60;99.90
25112;DHT22;13092;51.996;4.458;2023-06-24T08:15:43;24.60;99.90
25112;DHT22;13092;51.996;4.458;2023-06-24T08:18:11;24.70;99.90
25112;DHT22;13092;51.996;4.458;2023-06-24T08:20:40;24.80;99.90
25112;DHT22;13092;51.996;4.458;2023-06-24T08:23:08;24.80;99.90
25112;DHT22;13092;51.996;4.458;2023-06-24T08:25:39;24.90;99.90
25112;DHT22;13092;51.996;4.458;2023-06-24T08:28:08;24.90;99.90
25112;DHT22;13092;51.996;4.458;2023-06-24T08:30:36;24.90;99.90
25112;DHT22;13092;51.996;4.458;2023-06-24T08:33:05;24.80;99.90
25112;DHT22;13092;51.996;4.458;2023-06-24T08:35:33;24.90;99.90
25112;DHT22;13092;51.996;4.458;2023-06-24T08:38:02;25.10;99.90
25112;DHT22;13092;51.996;4.458;2023-06-24T08:40:31;25.30;99.90
25112;DHT22;13092;51.996;4.458;2023-06-24T08:42:59;25.40;99.90
25112;DHT22;13092;51.996;4.458;2023-06-24T08:45:29;25.50;99.90
25112;DHT22;13092;51.996;4.458;2023-06-24T08:47:57;25.30;99.90
25112;DHT22;13092;51.996;4.458;2023-06-24T08:50:33;25.40;99.90
25112;DHT22;13092;51.996;4.458;2023-06-24T08:53:05;25.40;99.90
25112;DHT22;13092;51.996;4.458;2023-06-24T08:55:39;25.50;99.90
25112;DHT22;13092;51.996;4.458;2023-06-24T08:58:08;25.60;99.90
25112;DHT22;13092;51.996;4.458;2023-06-24T09:00:37;25.70;99.90
25112;DHT22;13092;51.996;4.458;2023-06-24T09:03:06;25.80;99.90
25112;DHT22;13092;51.996;4.458;2023-06-24T09:05:34;26.10;99.90
25112;DHT22;13092;51.996;4.458;2023-06-24T09:08:04;26.40;99.90
25112;DHT22;13092;51.996;4.458;2023-06-24T09:10:33;26.50;99.90
25112;DHT22;13092;51.996;4.458;2023-06-24T09:13:02;26.70;99.90
25112;DHT22;13092;51.996;4.458;2023-06-24T09:15:31;26.90;99.90
25112;DHT22;13092;51.996;4.458;2023-06-24T09:18:02;26.70;99.90
25112;DHT22;13092;51.996;4.458;2023-06-24T09:20:31;26.90;99.90
25112;DHT22;13092;51.996;4.458;2023-06-24T09:23:06;27.10;99.90
25112;DHT22;13092;51.996;4.458;2023-06-24T09:25:35;27.30;99.90
25112;DHT22;13092;51.996;4.458;2023-06-24T09:28:04;27.50;99.90
25112;DHT22;13092;51.996;4.458;2023-06-24T09:30:32;27.70;99.90
25112;DHT22;13092;51.996;4.458;2023-06-24T09:33:03;28.00;99.90
25112;DHT22;13092;51.996;4.458;2023-06-24T09:35:35;28.10;99.90
25112;DHT22;13092;51.996;4.458;2023-06-24T09:38:04;28.30;99.90
25112;DHT22;13092;51.996;4.458;2023-06-24T09:40:35;28.50;99.90
25112;DHT22;13092;51.996;4.458;2023-06-24T09:43:04;28.70;99.90
25112;DHT22;13092;51.996;4.458;2023-06-24T09:45:32;28.90;99.90
25112;DHT22;13092;51.996;4.458;2023-06-24T09:48:03;28.90;99.90
25112;DHT22;13092;51.996;4.458;2023-06-24T09:50:32;28.90;99.90
25112;DHT22;13092;51.996;4.458;2023-06-24T09:53:01;29.00;99.90
25112;DHT22;13092;51.996;4.458;2023-06-24T09:55:31;29.10;99.90
25112;DHT22;13092;51.996;4.458;2023-06-24T09:58:01;29.10;99.90
25112;DHT22;13092;51.996;4.458;2023-06-24T10:00:29;29.10;99.90
25112;DHT22;13092;51.996;4.458;2023-06-24T10:02:59;29.10;99.90
25112;DHT22;13092;51.996;4.458;2023-06-24T10:05:31;29.20;99.90
25112;DHT22;13092;51.996;4.458;2023-06-24T10:08:04;29.30;99.90
25112;DHT22;13092;51.996;4.458;2023-06-24T10:10:33;29.40;99.90
25112;DHT22;13092;51.996;4.458;2023-06-24T10:13:02;29.50;99.90
25112;DHT22;13092;51.996;4.458;2023-06-24T10:15:30;29.60;99.90
25112;DHT22;13092;51.996;4.458;2023-06-24T10:18:01;29.80;99.90
25112;DHT22;13092;51.996;4.458;2023-06-24T10:20:36;29.60;99.90
25112;DHT22;13092;51.996;4.458;2023-06-24T10:23:06;29.50;99.90
25112;DHT22;13092;51.996;4.458;2023-06-24T10:25:36;29.40;99.90
25112;DHT22;13092;51.996;4.458;2023-06-24T10:28:04;29.40;99.90
25112;DHT22;13092;51.996;4.458;2023-06-24T10:30:33;29.40;99.90
25112;DHT22;13092;51.996;4.458;2023-06-24T10:33:01;29.40;99.90
25112;DHT22;13092;51.996;4.458;2023-06-24T10:35:30;29.20;99.90
25112;DHT22;13092;51.996;4.458;2023-06-24T10:38:02;29.10;99.90
25112;DHT22;13092;51.996;4.458;2023-06-24T10:40:35;29.10;99.90
25112;DHT22;13092;51.996;4.458;2023-06-24T10:43:25;29.10;99.90
25112;DHT22;13092;51.996;4.458;2023-06-24T10:45:55;29.20;99.90
25112;DHT22;13092;51.996;4.458;2023-06-24T10:48:30;29.30;99.90
25112;DHT22;13092;51.996;4.458;2023-06-24T10:51:01;29.30;99.90
25112;DHT22;13092;51.996;4.458;2023-06-24T10:53:32;29.50;99.90
25112;DHT22;13092;51.996;4.458;2023-06-24T10:56:02;29.60;99.90
25112;DHT22;13092;51.996;4.458;2023-06-24T10:58:30;29.60;99.90
25112;DHT22;13092;51.996;4.458;2023-06-24T11:01:06;29.70;99.90
25112;DHT22;13092;51.996;4.458;2023-06-24T11:03:39;29.50;99.90
25112;DHT22;13092;51.996;4.458;2023-06-24T11:06:10;29.40;99.90
25112;DHT22;13092;51.996;4.458;2023-06-24T11:08:44;29.20;99.90
25112;DHT22;13092;51.996;4.458;2023-06-24T11:11:20;29.40;99.90
25112;DHT22;13092;51.996;4.458;2023-06-24T11:13:49;29.60;99.90
25112;DHT22;13092;51.996;4.458;2023-06-24T11:16:20;29.60;99.90
25112;DHT22;13092;51.996;4.458;2023-06-24T11:18:49;29.80;99.90
25112;DHT22;13092;51.996;4.458;2023-06-24T11:21:17;29.90;99.90
25112;DHT22;13092;51.996;4.458;2023-06-24T11:23:47;29.90;99.90
25112;DHT22;13092;51.996;4.458;2023-06-24T11:26:15;29.80;99.90
25112;DHT22;13092;51.996;4.458;2023-06-24T11:28:47;29.80;99.90
25112;DHT22;13092;51.996;4.458;2023-06-24T11:31:16;29.90;99.90
25112;DHT22;13092;51.996;4.458;2023-06-24T11:33:48;29.90;99.90
25112;DHT22;13092;51.996;4.458;2023-06-24T11:36:17;30.20;99.90
25112;DHT22;13092;51.996;4.458;2023-06-24T11:38:48;30.50;99.90
25112;DHT22;13092;51.996;4.458;2023-06-24T11:41:16;30.60;99.90
25112;DHT22;13092;51.996;4.458;2023-06-24T11:43:48;30.80;99.90
25112;DHT22;13092;51.996;4.458;2023-06-24T11:46:21;30.80;99.90
25112;DHT22;13092;51.996;4.458;2023-06-24T11:48:49;30.90;99.90
25112;DHT22;13092;51.996;4.458;2023-06-24T11:51:17;30.90;99.90
25112;DHT22;13092;51.996;4.458;2023-06-24T11:53:48;31.00;99.90
25112;DHT22;13092;51.996;4.458;2023-06-24T11:56:17;30.80;99.90
25112;DHT22;13092;51.996;4.458;2023-06-24T11:58:48;30.70;99.90
25112;DHT22;13092;51.996;4.458;2023-06-24T12:01:18;30.70;99.90
25112;DHT22;13092;51.996;4.458;2023-06-24T12:03:46;30.60;99.90
25112;DHT22;13092;51.996;4.458;2023-06-24T12:06:14;30.60;99.90
25112;DHT22;13092;51.996;4.458;2023-06-24T12:08:43;30.30;99.90
25112;DHT22;13092;51.996;4.458;2023-06-24T12:11:19;30.20;99.90
25112;DHT22;13092;51.996;4.458;2023-06-24T12:13:48;30.50;99.90
25112;DHT22;13092;51.996;4.458;2023-06-24T12:16:16;30.60;99.90
25112;DHT22;13092;51.996;4.458;2023-06-24T12:18:45;30.20;99.90
25112;DHT22;13092;51.996;4.458;2023-06-24T12:21:13;29.80;99.90
25112;DHT22;13092;51.996;4.458;2023-06-24T12:23:41;29.60;99.90
25112;DHT22;13092;51.996;4.458;2023-06-24T12:26:10;29.50;99.90
25112;DHT22;13092;51.996;4.458;2023-06-24T12:28:40;29.50;99.90
25112;DHT22;13092;51.996;4.458;2023-06-24T12:31:08;29.50;99.90
25112;DHT22;13092;51.996;4.458;2023-06-24T12:33:36;29.40;99.90
25112;DHT22;13092;51.996;4.458;2023-06-24T12:36:05;29.30;99.90
25112;DHT22;13092;51.996;4.458;2023-06-24T12:38:33;29.50;99.90
25112;DHT22;13092;51.996;4.458;2023-06-24T12:41:03;29.70;99.90
25112;DHT22;13092;51.996;4.458;2023-06-24T12:43:32;29.60;99.90
25112;DHT22;13092;51.996;4.458;2023-06-24T12:46:02;29.60;99.90
25112;DHT22;13092;51.996;4.458;2023-06-24T12:48:31;29.80;99.90
25112;DHT22;13092;51.996;4.458;2023-06-24T12:50:59;29.90;99.90
25112;DHT22;13092;51.996;4.458;2023-06-24T12:53:28;30.00;99.90
25112;DHT22;13092;51.996;4.458;2023-06-24T12:55:56;29.80;99.90
25112;DHT22;13092;51.996;4.458;2023-06-24T12:58:25;29.60;99.90
25112;DHT22;13092;51.996;4.458;2023-06-24T13:00:53;29.50;99.90
25112;DHT22;13092;51.996;4.458;2023-06-24T13:03:23;29.50;99.90
25112;DHT22;13092;51.996;4.458;2023-06-24T13:05:51;29.60;99.90
25112;DHT22;13092;51.996;4.458;2023-06-24T13:08:20;29.80;99.90
25112;DHT22;13092;51.996;4.458;2023-06-24T13:10:48;30.10;99.90
25112;DHT22;13092;51.996;4.458;2023-06-24T13:13:17;30.10;99.90
25112;DHT22;13092;51.996;4.458;2023-06-24T13:15:45;30.00;99.90
25112;DHT22;13092;51.996;4.458;2023-06-24T13:18:13;29.70;99.90
25112;DHT22;13092;51.996;4.458;2023-06-24T13:20:43;29.70;99.90
25112;DHT22;13092;51.996;4.458;2023-06-24T13:23:11;29.60;99.90
25112;DHT22;13092;51.996;4.458;2023-06-24T13:25:40;29.80;99.90
25112;DHT22;13092;51.996;4.458;2023-06-24T13:28:09;29.90;99.90
25112;DHT22;13092;51.996;4.458;2023-06-24T13:30:37;29.80;99.90
25112;DHT22;13092;51.996;4.458;2023-06-24T13:33:07;29.70;99.90
25112;DHT22;13092;51.996;4.458;2023-06-24T13:35:35;29.70;99.90
25112;DHT22;13092;51.996;4.458;2023-06-24T13:38:05;29.70;99.90
25112;DHT22;13092;51.996;4.458;2023-06-24T13:40:35;29.70;99.90
25112;DHT22;13092;51.996;4.458;2023-06-24T13:43:03;29.90;99.90
25112;DHT22;13092;51.996;4.458;2023-06-24T13:45:31;29.70;99.90
25112;DHT22;13092;51.996;4.458;2023-06-24T13:48:03;29.50;99.90
25112;DHT22;13092;51.996;4.458;2023-06-24T13:50:31;29.60;99.90
25112;DHT22;13092;51.996;4.458;2023-06-24T13:53:01;29.70;99.90
25112;DHT22;13092;51.996;4.458;2023-06-24T13:55:30;29.70;99.90
25112;DHT22;13092;51.996;4.458;2023-06-24T13:57:59;29.60;99.90
25112;DHT22;13092;51.996;4.458;2023-06-24T14:00:27;29.70;99.90
25112;DHT22;13092;51.996;4.458;2023-06-24T14:02:56;29.70;99.90
25112;DHT22;13092;51.996;4.458;2023-06-24T14:05:24;29.60;99.90
25112;DHT22;13092;51.996;4.458;2023-06-24T14:07:53;29.60;99.90
25112;DHT22;13092;51.996;4.458;2023-06-24T14:10:22;29.50;99.90
25112;DHT22;13092;51.996;4.458;2023-06-24T14:12:52;29.40;99.90
25112;DHT22;13092;51.996;4.458;2023-06-24T14:15:30;29.50;99.90
25112;DHT22;13092;51.996;4.458;2023-06-24T14:17:58;29.70;99.90
25112;DHT22;13092;51.996;4.458;2023-06-24T14:20:27;29.90;99.90
25112;DHT22;13092;51.996;4.458;2023-06-24T14:22:56;29.80;99.90
25112;DHT22;13092;51.996;4.458;2023-06-24T14:25:28;29.60;99.90
25112;DHT22;13092;51.996;4.458;2023-06-24T14:27:58;29.50;99.90
25112;DHT22;13092;51.996;4.458;2023-06-24T14:30:26;29.50;99.90
25112;DHT22;13092;51.996;4.458;2023-06-24T14:32:57;29.50;99.90
25112;DHT22;13092;51.996;4.458;2023-06-24T14:35:32;29.60;99.90
25112;DHT22;13092;51.996;4.458;2023-06-24T14:38:01;29.70;99.90
25112;DHT22;13092;51.996;4.458;2023-06-24T14:40:29;29.80;99.90
25112;DHT22;13092;51.996;4.458;2023-06-24T14:43:05;29.80;99.90
25112;DHT22;13092;51.996;4.458;2023-06-24T14:45:33;29.70;99.90
25112;DHT22;13092;51.996;4.458;2023-06-24T14:48:01;29.50;99.90
25112;DHT22;13092;51.996;4.458;2023-06-24T14:50:30;29.50;99.90
25112;DHT22;13092;51.996;4.458;2023-06-24T14:52:59;29.30;99.90
25112;DHT22;13092;51.996;4.458;2023-06-24T14:55:27;29.40;99.90
25112;DHT22;13092;51.996;4.458;2023-06-24T14:57:56;29.60;99.90
25112;DHT22;13092;51.996;4.458;2023-06-24T15:00:26;29.60;99.90
25112;DHT22;13092;51.996;4.458;2023-06-24T15:02:55;29.50;99.90
25112;DHT22;13092;51.996;4.458;2023-06-24T15:05:24;29.20;99.90
25112;DHT22;13092;51.996;4.458;2023-06-24T15:07:53;29.00;99.90
25112;DHT22;13092;51.996;4.458;2023-06-24T15:10:27;28.80;99.90
25112;DHT22;13092;51.996;4.458;2023-06-24T15:12:56;29.00;99.90
25112;DHT22;13092;51.996;4.458;2023-06-24T15:15:26;29.20;99.90
25112;DHT22;13092;51.996;4.458;2023-06-24T15:17:55;29.20;99.90
25112;DHT22;13092;51.996;4.458;2023-06-24T15:20:26;28.90;99.90
25112;DHT22;13092;51.996;4.458;2023-06-24T15:22:54;28.80;99.90
25112;DHT22;13092;51.996;4.458;2023-06-24T15:25:25;28.80;99.90
25112;DHT22;13092;51.996;4.458;2023-06-24T15:27:57;28.70;99.90
25112;DHT22;13092;51.996;4.458;2023-06-24T15:30:30;28.60;99.90
25112;DHT22;13092;51.996;4.458;2023-06-24T15:32:58;28.50;99.90
25112;DHT22;13092;51.996;4.458;2023-06-24T15:35:27;28.50;99.90
25112;DHT22;13092;51.996;4.458;2023-06-24T15:37:56;28.50;99.90
25112;DHT22;13092;51.996;4.458;2023-06-24T15:40:24;28.30;99.90
25112;DHT22;13092;51.996;4.458;2023-06-24T15:42:52;28.30;99.90
25112;DHT22;13092;51.996;4.458;2023-06-24T15:45:21;28.30;99.90